Time;durP1;ratioP1;P1;durP2;ratioP2;P2;SDS_P1;SDS_P2;PMS_P1;PMS_P2;Temp;Humidity;BMP_temperature;BMP_pressure;BME280_temperature;BME280_humidity;BME280_pressure;Samples;Min_cycle;Max_cycle;Signal;HPM_P1;HPM_P2
2022/10/04 00:01:59;;;;;;;12.50;2.60;;;13.80;99.90;;;;;;4982426;28;20217;-68
2022/10/04 00:04:31;;;;;;;15.97;3.50;;;13.70;99.90;;;;;;4997338;28;20216;-68
2022/10/04 00:07:05;;;;;;;13.63;3.60;;;13.70;99.90;;;;;;4998787;28;20182;-70
2022/10/04 00:09:54;;;;;;;14.50;3.90;;;13.70;99.90;;;;;;4999078;28;20212;-69
2022/10/04 00:12:29;;;;;;;12.13;2.60;;;13.70;99.90;;;;;;4980625;28;20571;-67
2022/10/04 00:14:58;;;;;;;9.27;2.70;;;13.70;99.90;;;;;;5000814;28;20209;-68
2022/10/04 00:17:30;;;;;;;11.47;3.27;;;13.70;99.90;;;;;;5000468;28;20720;-69
2022/10/04 00:19:57;;;;;;;12.40;3.08;;;13.70;99.90;;;;;;4982776;28;20221;-68
2022/10/04 00:22:27;;;;;;;10.07;3.80;;;13.70;99.90;;;;;;4999723;28;20225;-70
2022/10/04 00:25:00;;;;;;;13.47;3.43;;;13.70;99.90;;;;;;5005251;28;20264;-70
2022/10/04 00:27:27;;;;;;;12.80;3.17;;;13.60;99.90;;;;;;5003793;28;20185;-70
2022/10/04 00:30:01;;;;;;;8.93;2.80;;;13.60;99.90;;;;;;5000455;28;20300;-70
2022/10/04 00:32:44;;;;;;;14.63;2.53;;;13.60;99.90;;;;;;4990305;28;20220;-70
2022/10/04 00:35:25;;;;;;;12.38;3.20;;;13.70;99.90;;;;;;4998426;28;20216;-70
2022/10/04 00:38:05;;;;;;;12.07;2.95;;;13.70;99.90;;;;;;4999566;28;20572;-70
2022/10/04 00:40:35;;;;;;;12.80;4.00;;;13.70;99.90;;;;;;5001780;28;20599;-70
2022/10/04 00:43:05;;;;;;;14.10;2.47;;;13.60;99.90;;;;;;4980114;28;20615;-70
2022/10/04 00:45:44;;;;;;;8.43;2.40;;;13.60;99.90;;;;;;4985699;28;20166;-70
2022/10/04 00:48:33;;;;;;;10.50;2.97;;;13.70;99.90;;;;;;4999398;28;20202;-70
2022/10/04 00:51:34;;;;;;;10.25;2.70;;;13.60;99.90;;;;;;4998337;28;20217;-70
2022/10/04 00:54:15;;;;;;;10.50;2.70;;;13.60;99.90;;;;;;4995355;28;20215;-70
2022/10/04 00:56:49;;;;;;;10.82;3.40;;;13.60;99.90;;;;;;4999981;28;20263;-69
2022/10/04 00:59:30;;;;;;;13.07;2.77;;;13.60;99.90;;;;;;4982755;28;20806;-69
2022/10/04 01:02:16;;;;;;;8.47;2.87;;;13.50;99.90;;;;;;4972877;28;20213;-70
2022/10/04 01:04:59;;;;;;;13.80;2.43;;;13.50;99.90;;;;;;4984013;28;20764;-70
2022/10/04 01:07:32;;;;;;;7.47;2.57;;;13.60;99.90;;;;;;4983430;28;20201;-70
2022/10/04 01:10:03;;;;;;;11.97;2.90;;;13.50;99.90;;;;;;4997776;28;20223;-70
2022/10/04 01:12:36;;;;;;;13.30;3.23;;;13.50;99.90;;;;;;5001628;28;20239;-70
2022/10/04 01:15:15;;;;;;;9.77;2.83;;;13.50;99.90;;;;;;4998512;28;20237;-70
2022/10/04 01:17:40;;;;;;;15.43;3.47;;;13.50;99.90;;;;;;5000607;28;20200;-69
2022/10/04 01:20:35;;;;;;;10.95;2.65;;;13.50;99.90;;;;;;4998346;28;20216;-70
2022/10/04 01:23:02;;;;;;;8.63;2.70;;;13.40;99.90;;;;;;4993254;28;20820;-70
2022/10/04 01:25:50;;;;;;;8.83;2.83;;;13.40;99.90;;;;;;5001205;28;20209;-70
2022/10/04 01:28:16;;;;;;;14.23;2.60;;;13.40;99.90;;;;;;4998524;28;20740;-70
2022/10/04 01:30:43;;;;;;;15.70;3.63;;;13.40;99.90;;;;;;5002383;28;20201;-68
2022/10/04 01:33:11;;;;;;;8.47;2.60;;;13.30;99.90;;;;;;5001581;28;20221;-68
2022/10/04 01:35:36;;;;;;;11.07;2.72;;;13.30;99.90;;;;;;4998333;28;20217;-70
2022/10/04 01:38:06;;;;;;;11.83;3.10;;;13.30;99.90;;;;;;4998967;28;20657;-70
2022/10/04 01:40:38;;;;;;;9.23;2.35;;;13.30;99.90;;;;;;5001293;28;20707;-70
2022/10/04 01:43:11;;;;;;;6.23;2.30;;;13.20;99.90;;;;;;4997871;28;20221;-70
2022/10/04 01:45:46;;;;;;;15.15;3.30;;;13.20;99.90;;;;;;5001686;28;20231;-70
2022/10/04 01:48:15;;;;;;;10.87;3.13;;;13.20;99.90;;;;;;4998960;28;20209;-71
2022/10/04 01:50:50;;;;;;;10.27;3.03;;;13.20;99.90;;;;;;4999666;28;20205;-70
2022/10/04 01:53:27;;;;;;;9.50;2.93;;;13.20;99.90;;;;;;4999780;28;20227;-70
2022/10/04 01:56:02;;;;;;;10.83;2.70;;;13.20;99.90;;;;;;4977348;28;20359;-70
2022/10/04 01:58:33;;;;;;;7.70;2.60;;;13.10;99.90;;;;;;5005684;28;20606;-69
2022/10/04 02:01:08;;;;;;;8.73;2.77;;;13.10;99.90;;;;;;5004498;28;20216;-68
2022/10/04 02:03:37;;;;;;;10.00;3.27;;;13.10;99.90;;;;;;4990341;28;20645;-69
2022/10/04 02:06:06;;;;;;;13.73;2.90;;;13.10;99.90;;;;;;5001591;28;20328;-68
2022/10/04 02:08:36;;;;;;;10.43;2.73;;;13.10;99.90;;;;;;5004049;28;20271;-68
2022/10/04 02:11:03;;;;;;;7.40;2.30;;;13.00;99.90;;;;;;5001037;28;20307;-68
2022/10/04 02:13:34;;;;;;;12.13;3.43;;;13.00;99.90;;;;;;5004470;28;20201;-68
2022/10/04 02:16:02;;;;;;;8.83;3.10;;;13.00;99.90;;;;;;5001630;28;20188;-68
2022/10/04 02:18:30;;;;;;;11.47;2.97;;;13.00;99.90;;;;;;5003996;28;20213;-68
2022/10/04 02:20:57;;;;;;;12.60;3.20;;;13.00;99.90;;;;;;5002363;28;20216;-68
2022/10/04 02:23:23;;;;;;;12.83;2.93;;;13.00;99.90;;;;;;5004224;28;20209;-68
2022/10/04 02:25:49;;;;;;;15.40;3.17;;;13.00;99.90;;;;;;5001472;28;20202;-68
2022/10/04 02:28:17;;;;;;;9.37;2.97;;;13.00;99.90;;;;;;5001227;28;21054;-68
2022/10/04 02:32:56;;;;;;;7.97;2.37;;;13.10;99.90;;;;;;4986443;28;20224;-68
2022/10/04 02:33:37;;;;;;;7.93;2.37;;;13.10;99.90;;;;;;5003922;28;20205;-68
2022/10/04 02:36:07;;;;;;;13.20;2.63;;;13.10;99.90;;;;;;5004253;28;20208;-68
2022/10/04 02:39:01;;;;;;;11.67;2.60;;;13.10;99.90;;;;;;5004287;28;20733;-68
2022/10/04 02:41:48;;;;;;;10.00;2.60;;;13.10;99.90;;;;;;4999968;28;20253;-68
2022/10/04 02:44:28;;;;;;;12.93;2.87;;;13.00;99.90;;;;;;5000999;28;20206;-68
2022/10/04 02:47:03;;;;;;;12.77;2.53;;;13.00;99.90;;;;;;5001435;28;20205;-69
2022/10/04 02:49:45;;;;;;;9.67;3.07;;;13.00;99.90;;;;;;5004082;28;20315;-69
2022/10/04 02:52:22;;;;;;;8.87;2.97;;;12.90;99.90;;;;;;5000355;28;20227;-70
2022/10/04 02:55:05;;;;;;;12.50;3.07;;;12.80;99.90;;;;;;5001693;28;20176;-69
2022/10/04 02:57:32;;;;;;;10.50;3.03;;;12.80;99.90;;;;;;5003048;28;20304;-70
2022/10/04 03:00:12;;;;;;;8.87;3.37;;;12.80;99.90;;;;;;4999606;28;20225;-69
2022/10/04 03:02:38;;;;;;;10.40;2.87;;;12.60;99.90;;;;;;5003424;28;20215;-70
2022/10/04 03:05:07;;;;;;;11.97;2.93;;;12.60;99.90;;;;;;4999533;28;20727;-69
2022/10/04 03:07:35;;;;;;;10.53;3.10;;;12.60;99.90;;;;;;5003385;28;20339;-70
2022/10/04 03:10:05;;;;;;;17.43;3.80;;;12.50;99.90;;;;;;4999616;28;20219;-70
2022/10/04 03:12:32;;;;;;;9.53;3.03;;;12.50;99.90;;;;;;5003437;28;20188;-70
2022/10/04 03:14:58;;;;;;;13.47;3.33;;;12.50;99.90;;;;;;5001442;28;20213;-70
2022/10/04 03:17:24;;;;;;;11.63;3.17;;;12.40;99.90;;;;;;5003868;28;20285;-70
2022/10/04 03:19:50;;;;;;;9.33;3.10;;;12.40;99.90;;;;;;5002714;28;20213;-70
2022/10/04 03:22:17;;;;;;;15.57;3.57;;;12.40;99.90;;;;;;5001385;28;20218;-70
2022/10/04 03:24:52;;;;;;;14.10;2.90;;;12.30;99.90;;;;;;5002314;28;20181;-70
2022/10/04 03:27:25;;;;;;;15.60;3.10;;;12.30;99.90;;;;;;4978573;28;20212;-70
2022/10/04 03:29:52;;;;;;;14.83;3.20;;;12.20;99.90;;;;;;4999508;28;20296;-70
2022/10/04 03:32:19;;;;;;;9.73;2.83;;;12.20;99.90;;;;;;5002092;28;20205;-71
2022/10/04 03:35:06;;;;;;;10.07;3.60;;;12.10;99.90;;;;;;5000596;28;20240;-69
2022/10/04 03:37:36;;;;;;;17.77;3.67;;;12.10;99.90;;;;;;5002219;28;20223;-70
2022/10/04 03:40:07;;;;;;;16.13;4.00;;;12.10;99.90;;;;;;4999227;28;20198;-70
2022/10/04 03:42:35;;;;;;;15.07;4.43;;;12.10;99.90;;;;;;5002885;28;20200;-70
2022/10/04 03:45:06;;;;;;;12.93;3.37;;;12.10;99.90;;;;;;5000865;28;20287;-69
2022/10/04 03:47:35;;;;;;;14.47;4.13;;;12.10;99.90;;;;;;5002848;28;20201;-70
2022/10/04 03:50:11;;;;;;;12.37;3.10;;;12.10;99.90;;;;;;4999440;28;20225;-69
2022/10/04 03:52:40;;;;;;;11.97;3.57;;;12.10;99.90;;;;;;5000104;28;20213;-70
2022/10/04 03:55:07;;;;;;;11.27;3.50;;;12.00;99.90;;;;;;4982269;28;20244;-70
2022/10/04 03:57:34;;;;;;;13.90;3.53;;;12.00;99.90;;;;;;5004559;28;20656;-70
2022/10/04 04:00:00;;;;;;;8.47;2.73;;;12.10;99.90;;;;;;4998718;28;20217;-70
2022/10/04 04:02:28;;;;;;;12.90;3.10;;;12.20;99.90;;;;;;5001026;28;20205;-70
2022/10/04 04:05:03;;;;;;;11.53;3.57;;;12.30;99.90;;;;;;5000487;28;20220;-70
2022/10/04 04:07:42;;;;;;;9.40;3.27;;;12.30;99.90;;;;;;4976395;28;20197;-70
2022/10/04 04:10:27;;;;;;;12.50;3.10;;;12.40;99.90;;;;;;4998611;28;20221;-70
2022/10/04 04:13:24;;;;;;;10.47;2.63;;;12.50;99.90;;;;;;5001392;28;20272;-69
2022/10/04 04:15:50;;;;;;;14.40;3.70;;;12.50;99.90;;;;;;5001794;28;20265;-69
2022/10/04 04:18:21;;;;;;;10.40;2.63;;;12.50;99.90;;;;;;5003012;28;20233;-70
2022/10/04 04:20:50;;;;;;;9.27;2.93;;;12.60;99.90;;;;;;4999523;28;20283;-70
2022/10/04 04:23:27;;;;;;;10.07;2.83;;;12.50;99.90;;;;;;5001501;28;20279;-70
2022/10/04 04:26:10;;;;;;;12.90;2.80;;;12.50;99.90;;;;;;4998844;28;20209;-69
2022/10/04 04:28:47;;;;;;;7.53;2.63;;;12.50;99.90;;;;;;5001962;28;20212;-70
2022/10/04 04:31:24;;;;;;;15.50;2.83;;;12.50;99.90;;;;;;4999723;28;20224;-70
2022/10/04 04:34:13;;;;;;;13.53;2.60;;;12.40;99.90;;;;;;5003226;28;20192;-70
2022/10/04 04:36:40;;;;;;;13.07;2.80;;;12.30;99.90;;;;;;5002168;28;20239;-70
2022/10/04 04:42:05;;;;;;;14.37;3.63;;;12.30;99.90;;;;;;5000369;28;20276;-69
2022/10/04 04:44:31;;;;;;;7.80;3.27;;;12.20;99.90;;;;;;5000919;28;20206;-69
2022/10/04 04:46:59;;;;;;;13.53;3.07;;;12.20;99.90;;;;;;4999669;28;20269;-70
2022/10/04 04:49:28;;;;;;;10.17;2.90;;;12.20;99.90;;;;;;5001344;28;20212;-70
2022/10/04 04:51:56;;;;;;;12.50;3.73;;;12.10;99.90;;;;;;5000489;28;20565;-70
2022/10/04 04:54:24;;;;;;;11.03;3.10;;;12.10;99.90;;;;;;5008610;28;20165;-69
2022/10/04 04:56:51;;;;;;;10.23;3.03;;;12.10;99.90;;;;;;5004219;28;20300;-70
2022/10/04 04:59:19;;;;;;;12.03;3.50;;;12.10;99.90;;;;;;5002022;28;20268;-70
2022/10/04 05:01:46;;;;;;;11.13;3.33;;;12.20;99.90;;;;;;4988028;28;20271;-70
2022/10/04 05:04:15;;;;;;;13.47;2.77;;;12.30;99.90;;;;;;5005813;28;20250;-70
2022/10/04 05:06:47;;;;;;;8.83;2.50;;;12.30;99.90;;;;;;5003781;28;20173;-70
2022/10/04 05:09:30;;;;;;;11.93;3.70;;;12.30;99.90;;;;;;4983623;28;20244;-69
2022/10/04 05:12:13;;;;;;;11.53;3.67;;;12.30;99.90;;;;;;5004760;28;20258;-69
2022/10/04 05:14:48;;;;;;;11.57;3.43;;;12.30;99.90;;;;;;5003111;28;20702;-69
2022/10/04 05:17:23;;;;;;;8.80;2.73;;;12.40;99.90;;;;;;5003301;28;20226;-71
2022/10/04 05:19:50;;;;;;;12.13;3.23;;;12.50;99.90;;;;;;5004186;28;20235;-70
2022/10/04 05:22:19;;;;;;;10.60;2.63;;;12.50;99.90;;;;;;5007053;28;20312;-70
2022/10/04 05:24:48;;;;;;;6.83;2.37;;;12.60;99.90;;;;;;5001883;28;20181;-69
2022/10/04 05:27:24;;;;;;;7.30;2.37;;;12.60;99.90;;;;;;5005400;28;20243;-70
2022/10/04 05:30:22;;;;;;;9.83;2.73;;;12.70;99.90;;;;;;5010222;28;20208;-69
2022/10/04 05:33:07;;;;;;;11.83;2.73;;;12.80;99.90;;;;;;5009180;28;20241;-69
2022/10/04 05:36:10;;;;;;;12.90;3.17;;;12.80;99.90;;;;;;4992887;28;20197;-69
2022/10/04 05:39:01;;;;;;;12.03;3.80;;;12.90;99.90;;;;;;5000497;28;20204;-69
2022/10/04 05:41:55;;;;;;;12.23;3.47;;;13.00;99.90;;;;;;5010225;28;20220;-69
2022/10/04 05:44:27;;;;;;;14.63;3.80;;;13.00;99.90;;;;;;5008132;28;20270;-69
2022/10/04 05:46:55;;;;;;;10.57;3.13;;;13.10;99.90;;;;;;5011859;28;20263;-69
2022/10/04 05:49:24;;;;;;;13.27;4.20;;;13.20;99.90;;;;;;5007970;28;20216;-69
2022/10/04 05:51:49;;;;;;;9.63;2.97;;;13.30;99.90;;;;;;5007673;28;20192;-69
2022/10/04 05:54:21;;;;;;;12.97;4.37;;;13.50;99.90;;;;;;5013999;28;20208;-70
2022/10/04 05:57:14;;;;;;;10.83;2.90;;;13.40;99.90;;;;;;4993091;28;20217;-69
2022/10/04 06:00:06;;;;;;;10.27;3.20;;;13.30;99.90;;;;;;5008148;28;20263;-69
2022/10/04 06:02:31;;;;;;;11.57;3.40;;;13.30;99.90;;;;;;4995144;28;20287;-70
2022/10/04 06:05:34;;;;;;;8.03;3.10;;;13.30;99.90;;;;;;4993122;28;20274;-69
2022/10/04 06:08:07;;;;;;;15.80;4.10;;;13.20;99.90;;;;;;4995215;28;20536;-69
2022/10/04 06:10:57;;;;;;;9.20;3.03;;;13.30;99.90;;;;;;4993309;28;20939;-69
2022/10/04 06:13:54;;;;;;;12.43;3.87;;;13.50;99.90;;;;;;5010337;28;20228;-70
2022/10/04 06:17:01;;;;;;;10.02;2.80;;;13.70;99.90;;;;;;4992457;28;20209;-69
2022/10/04 06:19:52;;;;;;;10.88;2.90;;;14.00;99.90;;;;;;5014680;28;20223;-69
2022/10/04 06:22:20;;;;;;;9.20;2.45;;;14.20;99.90;;;;;;5011075;28;20311;-70
2022/10/04 06:25:09;;;;;;;9.45;2.63;;;14.30;99.90;;;;;;5010026;28;20184;-70
2022/10/04 06:28:01;;;;;;;11.55;4.40;;;14.50;99.90;;;;;;5011881;28;20220;-71
2022/10/04 06:30:33;;;;;;;11.05;3.20;;;14.80;99.90;;;;;;4990741;28;20289;-70
2022/10/04 06:33:02;;;;;;;7.03;2.67;;;14.70;99.90;;;;;;5006344;28;20221;-69
2022/10/04 06:35:56;;;;;;;10.57;3.20;;;14.40;99.90;;;;;;5008180;28;20216;-70
2022/10/04 06:38:47;;;;;;;10.13;4.00;;;14.30;99.90;;;;;;5011108;28;20221;-70
2022/10/04 06:41:33;;;;;;;8.23;3.20;;;14.20;99.90;;;;;;4988042;28;20585;-70
2022/10/04 06:44:36;;;;;;;8.60;2.92;;;14.10;99.90;;;;;;4988109;28;20227;-70
2022/10/04 06:47:20;;;;;;;6.25;2.78;;;14.10;99.90;;;;;;5007976;28;20213;-70
2022/10/04 06:50:16;;;;;;;9.80;2.67;;;14.10;99.90;;;;;;5004826;28;20244;-69
2022/10/04 06:53:05;;;;;;;7.15;2.90;;;13.90;99.90;;;;;;5007156;28;20217;-69
2022/10/04 06:55:51;;;;;;;8.70;2.78;;;13.90;99.90;;;;;;5004540;28;20312;-71
2022/10/04 06:58:42;;;;;;;10.13;2.85;;;13.90;99.90;;;;;;4991138;28;20221;-70
2022/10/04 07:01:24;;;;;;;9.35;2.75;;;13.90;99.90;;;;;;5006913;28;20197;-70
2022/10/04 07:04:09;;;;;;;8.63;3.30;;;13.90;99.90;;;;;;4993139;28;20177;-70
2022/10/04 07:06:46;;;;;;;15.27;3.60;;;13.80;99.90;;;;;;5007335;28;20367;-70
2022/10/04 07:09:25;;;;;;;10.25;3.55;;;13.90;99.90;;;;;;4989052;28;20312;-69
2022/10/04 07:12:09;;;;;;;8.52;3.28;;;14.10;99.90;;;;;;4990929;28;20263;-70
2022/10/04 07:14:42;;;;;;;7.90;3.17;;;14.10;99.90;;;;;;5006652;28;20240;-70
2022/10/04 07:17:12;;;;;;;12.50;3.30;;;14.10;99.90;;;;;;5006988;28;20216;-70
2022/10/04 07:19:47;;;;;;;9.43;3.30;;;14.00;99.90;;;;;;4995236;28;20208;-70
2022/10/04 07:22:29;;;;;;;9.63;3.53;;;14.10;99.90;;;;;;5004908;28;20236;-70
2022/10/04 07:25:22;;;;;;;8.17;3.90;;;14.10;99.90;;;;;;5005129;28;20280;-70
2022/10/04 07:29:19;;;;;;;11.43;3.78;;;14.20;99.90;;;;;;5007328;28;20559;-70
2022/10/04 07:30:51;;;;;;;13.10;3.92;;;14.10;99.90;;;;;;5007136;28;20227;-69
2022/10/04 07:33:22;;;;;;;12.65;3.20;;;14.10;99.90;;;;;;4990204;28;20240;-70
2022/10/04 07:35:53;;;;;;;16.00;4.35;;;14.10;99.90;;;;;;4986491;28;20640;-69
2022/10/04 07:38:31;;;;;;;10.63;3.75;;;14.10;99.90;;;;;;5008025;28;20247;-70
2022/10/04 07:41:07;;;;;;;9.57;3.60;;;14.20;99.90;;;;;;5005744;28;20244;-71
2022/10/04 07:43:43;;;;;;;9.70;3.63;;;14.10;99.90;;;;;;4990752;28;20204;-70
2022/10/04 07:46:46;;;;;;;11.38;4.18;;;14.20;99.90;;;;;;5008145;28;22581;-70
2022/10/04 07:49:18;;;;;;;10.15;3.78;;;14.10;99.90;;;;;;5005385;28;20575;-70
2022/10/04 07:52:04;;;;;;;11.73;4.05;;;14.10;99.90;;;;;;4990406;28;20198;-70
2022/10/04 07:54:51;;;;;;;9.15;3.80;;;14.30;99.90;;;;;;5005769;28;20232;-70
2022/10/04 07:57:35;;;;;;;10.82;4.13;;;14.20;99.90;;;;;;5006912;28;20689;-70
2022/10/04 08:00:16;;;;;;;13.65;4.90;;;14.30;99.90;;;;;;5006125;28;20323;-71
2022/10/04 08:03:03;;;;;;;9.93;4.70;;;14.30;99.90;;;;;;5007453;28;20226;-70
2022/10/04 08:05:38;;;;;;;8.23;4.07;;;14.40;99.90;;;;;;5011562;28;20209;-70
2022/10/04 08:08:40;;;;;;;11.32;4.25;;;14.40;99.90;;;;;;4987735;28;20299;-70
2022/10/04 08:11:32;;;;;;;9.45;4.60;;;14.50;99.90;;;;;;5007567;28;20224;-71
2022/10/04 08:14:22;;;;;;;9.35;5.30;;;14.70;99.90;;;;;;5010279;28;20205;-70
2022/10/04 08:17:08;;;;;;;12.32;4.90;;;15.10;99.90;;;;;;5003702;28;20222;-70
2022/10/04 08:19:43;;;;;;;11.23;4.22;;;15.40;99.90;;;;;;5008873;28;20255;-70
2022/10/04 08:22:21;;;;;;;11.88;4.50;;;15.70;99.90;;;;;;5005251;28;20204;-70
2022/10/04 08:25:01;;;;;;;10.75;4.57;;;15.90;99.90;;;;;;5005219;28;20241;-70
2022/10/04 08:29:41;;;;;;;11.55;5.85;;;16.00;99.90;;;;;;5007421;28;20247;-70
2022/10/04 08:31:00;;;;;;;11.13;5.35;;;16.00;99.90;;;;;;5005905;28;20259;-70
2022/10/04 08:33:38;;;;;;;10.50;5.15;;;16.00;99.90;;;;;;5004996;28;20292;-70
2022/10/04 08:36:22;;;;;;;9.70;4.78;;;16.00;99.90;;;;;;5006277;28;20223;-70
2022/10/04 08:38:59;;;;;;;10.02;5.15;;;16.00;99.90;;;;;;5003989;28;20598;-70
2022/10/04 08:42:09;;;;;;;10.35;4.30;;;16.20;99.90;;;;;;5003348;28;20231;-70
2022/10/04 08:44:56;;;;;;;9.40;3.92;;;16.40;99.90;;;;;;4970279;28;20223;-71
2022/10/04 08:47:24;;;;;;;8.00;3.83;;;17.00;99.90;;;;;;5001617;28;20258;-71
2022/10/04 08:50:30;;;;;;;9.52;4.22;;;17.30;99.90;;;;;;5003027;28;20233;-69
2022/10/04 08:53:53;;;;;;;8.18;3.72;;;17.30;99.90;;;;;;5003586;28;20630;-70
2022/10/04 08:56:56;;;;;;;5.05;2.83;;;17.10;99.90;;;;;;4924400;29;20308;-75
2022/10/04 08:59:58;;;;;;;8.77;4.10;;;16.90;99.90;;;;;;4926247;29;20383;-72
2022/10/04 09:02:56;;;;;;;9.88;3.50;;;16.90;99.90;;;;;;5001345;28;20263;-72
2022/10/04 09:05:32;;;;;;;8.95;3.38;;;17.20;99.90;;;;;;4984812;28;20201;-74
2022/10/04 09:08:22;;;;;;;5.15;3.63;;;17.30;99.90;;;;;;5000256;28;20209;-74
2022/10/04 09:11:19;;;;;;;5.22;3.33;;;17.30;99.90;;;;;;5004078;28;20875;-73
2022/10/04 09:14:16;;;;;;;8.05;4.20;;;17.70;99.90;;;;;;5003515;28;20308;-72
2022/10/04 09:16:45;;;;;;;7.93;3.65;;;18.10;99.90;;;;;;5005507;28;20263;-72
2022/10/04 09:19:31;;;;;;;13.95;5.55;;;18.30;99.90;;;;;;4991730;28;20573;-69
2022/10/04 09:21:57;;;;;;;7.35;2.97;;;18.20;99.90;;;;;;5003765;28;20254;-71
2022/10/04 09:25:07;;;;;;;7.47;2.60;;;18.10;99.90;;;;;;4991443;28;20173;-70
2022/10/04 09:27:45;;;;;;;5.13;2.50;;;18.00;99.90;;;;;;5006828;28;20205;-71
2022/10/04 09:30:14;;;;;;;5.25;2.70;;;17.90;99.90;;;;;;5004561;28;20219;-70
2022/10/04 09:33:06;;;;;;;5.72;2.13;;;17.70;99.90;;;;;;5008129;28;20691;-70
2022/10/04 09:35:34;;;;;;;4.57;1.90;;;17.30;99.90;;;;;;5007304;28;20220;-70
2022/10/04 09:38:21;;;;;;;5.05;1.52;;;17.20;99.90;;;;;;5006293;28;20278;-70
2022/10/04 09:41:11;;;;;;;5.13;2.60;;;17.50;99.90;;;;;;4988089;28;20223;-70
2022/10/04 09:44:02;;;;;;;4.60;1.92;;;17.70;99.90;;;;;;5009389;28;20220;-70
2022/10/04 09:46:46;;;;;;;4.22;2.17;;;17.60;99.90;;;;;;5006112;28;20295;-70
2022/10/04 09:49:55;;;;;;;6.80;1.90;;;17.90;99.90;;;;;;4986143;28;20220;-70
2022/10/04 09:52:33;;;;;;;5.60;2.28;;;17.60;99.90;;;;;;5010460;28;20223;-70
2022/10/04 09:55:35;;;;;;;4.63;2.00;;;17.80;99.90;;;;;;5006038;28;20184;-69
2022/10/04 09:58:29;;;;;;;4.43;2.08;;;18.10;99.90;;;;;;5004124;28;20256;-70
2022/10/04 10:01:28;;;;;;;8.45;2.47;;;18.20;99.90;;;;;;4998315;28;20194;-70
2022/10/04 10:04:21;;;;;;;9.63;2.85;;;18.10;99.90;;;;;;5004317;28;20227;-70
2022/10/04 10:07:31;;;;;;;5.82;2.47;;;17.90;99.90;;;;;;4989655;28;20267;-70
2022/10/04 10:13:39;;;;;;;7.90;2.97;;;18.10;99.90;;;;;;5004273;28;20223;-70
2022/10/04 10:16:39;;;;;;;5.90;2.78;;;18.00;99.90;;;;;;4987799;28;20196;-70
2022/10/04 10:19:54;;;;;;;7.88;2.40;;;18.20;99.90;;;;;;5010520;28;20213;-70
2022/10/04 10:22:45;;;;;;;8.13;2.40;;;18.40;99.90;;;;;;4933175;28;20252;-70
2022/10/04 10:25:11;;;;;;;5.60;2.70;;;18.60;99.90;;;;;;5007946;28;20249;-70
2022/10/04 10:27:39;;;;;;;6.10;2.38;;;18.80;99.90;;;;;;4991485;28;20628;-70
2022/10/04 10:30:37;;;;;;;4.28;2.10;;;18.60;99.90;;;;;;5008064;28;20233;-70
2022/10/04 10:33:19;;;;;;;8.45;2.70;;;18.50;99.90;;;;;;4994991;28;20707;-68
2022/10/04 10:36:23;;;;;;;5.18;2.40;;;18.70;99.90;;;;;;4987405;28;20579;-68
2022/10/04 10:38:57;;;;;;;5.10;2.33;;;19.10;99.90;;;;;;5006258;28;20213;-68
2022/10/04 10:41:40;;;;;;;7.80;2.65;;;19.10;99.90;;;;;;5006091;28;20201;-68
2022/10/04 10:44:22;;;;;;;6.55;2.50;;;19.20;99.90;;;;;;5011812;28;20237;-68
2022/10/04 10:47:00;;;;;;;8.13;2.92;;;19.20;99.90;;;;;;4990594;28;20228;-68
2022/10/04 10:49:33;;;;;;;6.47;2.67;;;18.90;99.90;;;;;;5006555;28;20210;-68
2022/10/04 10:52:05;;;;;;;11.02;2.80;;;18.90;99.90;;;;;;4987087;28;20182;-69
2022/10/04 10:54:56;;;;;;;8.13;2.78;;;18.80;99.90;;;;;;5011221;28;20252;-68
2022/10/04 10:57:54;;;;;;;7.25;2.83;;;18.60;99.90;;;;;;4960599;28;20208;-68
2022/10/04 11:00:22;;;;;;;8.02;2.78;;;18.60;99.90;;;;;;4990400;28;20299;-68
2022/10/04 11:03:00;;;;;;;6.72;2.65;;;18.60;99.90;;;;;;5007121;28;20220;-68
2022/10/04 11:05:42;;;;;;;6.68;2.75;;;18.60;99.90;;;;;;5007029;28;20205;-68
2022/10/04 11:08:29;;;;;;;6.30;2.75;;;18.40;99.90;;;;;;4986775;28;20209;-68
2022/10/04 11:11:16;;;;;;;5.10;2.33;;;18.60;99.90;;;;;;5007040;28;20221;-68
2022/10/04 11:14:00;;;;;;;11.27;3.05;;;18.50;99.90;;;;;;5006005;28;20207;-68
2022/10/04 11:16:55;;;;;;;5.25;2.63;;;18.40;99.90;;;;;;5005697;28;20288;-68
2022/10/04 11:19:39;;;;;;;10.48;3.03;;;18.40;99.90;;;;;;4994979;28;20209;-68
2022/10/04 11:22:44;;;;;;;6.63;2.53;;;18.40;99.90;;;;;;5006598;28;20288;-68
2022/10/04 11:25:18;;;;;;;4.45;2.33;;;18.20;99.90;;;;;;4984371;28;20217;-68
2022/10/04 11:28:02;;;;;;;6.13;2.70;;;18.20;99.90;;;;;;5007891;28;20204;-68
2022/10/04 11:30:50;;;;;;;8.57;3.40;;;18.30;99.90;;;;;;5007084;28;20287;-68
2022/10/04 11:33:57;;;;;;;9.43;2.33;;;18.70;99.90;;;;;;4987969;28;20240;-68
2022/10/04 11:37:01;;;;;;;6.15;2.10;;;19.10;99.90;;;;;;5007819;28;20303;-68
2022/10/04 11:39:52;;;;;;;14.97;4.37;;;19.10;99.90;;;;;;4977349;28;20429;-68
2022/10/04 11:42:56;;;;;;;18.17;5.75;;;19.30;99.90;;;;;;5004787;28;20990;-68
2022/10/04 11:45:40;;;;;;;10.82;3.97;;;19.30;99.90;;;;;;5007378;28;20200;-68
2022/10/04 11:48:16;;;;;;;15.27;4.97;;;19.00;99.90;;;;;;5006280;28;20201;-71
2022/10/04 11:51:39;;;;;;;6.40;2.42;;;19.10;99.90;;;;;;5004041;28;20209;-70
2022/10/04 11:54:29;;;;;;;12.10;4.20;;;19.10;99.90;;;;;;4913619;29;20220;-71
2022/10/04 11:57:14;;;;;;;8.05;3.40;;;18.90;99.90;;;;;;4929368;29;20294;-71
2022/10/04 11:59:50;;;;;;;9.20;2.80;;;18.80;99.90;;;;;;4974188;28;20209;-70
2022/10/04 12:02:34;;;;;;;9.77;3.13;;;18.80;99.90;;;;;;5004725;28;20208;-70
2022/10/04 12:05:19;;;;;;;9.60;3.20;;;18.60;99.90;;;;;;5005548;28;20209;-70
2022/10/04 12:07:54;;;;;;;10.68;2.78;;;18.60;99.90;;;;;;5003940;28;20765;-70
2022/10/04 12:10:37;;;;;;;8.65;2.45;;;18.60;99.90;;;;;;5006332;28;20223;-71
2022/10/04 12:13:17;;;;;;;7.63;2.00;;;18.60;99.90;;;;;;5006436;28;20199;-70
2022/10/04 12:15:51;;;;;;;6.28;2.17;;;18.40;99.90;;;;;;5004630;28;20181;-73
2022/10/04 12:18:38;;;;;;;10.77;2.20;;;18.40;99.90;;;;;;5009011;28;20631;-72
2022/10/04 12:21:11;;;;;;;4.60;1.63;;;18.50;99.90;;;;;;5006581;28;20308;-73
2022/10/04 12:23:53;;;;;;;5.68;2.05;;;18.50;99.90;;;;;;5006118;28;20248;-69
2022/10/04 12:26:36;;;;;;;5.32;2.03;;;18.40;99.90;;;;;;4982135;28;20723;-69
2022/10/04 12:29:31;;;;;;;8.90;1.77;;;18.40;99.90;;;;;;4999784;28;20275;-69
2022/10/04 12:32:18;;;;;;;11.50;2.28;;;18.40;99.90;;;;;;5004859;28;20210;-69
2022/10/04 12:35:05;;;;;;;4.25;1.67;;;18.50;99.90;;;;;;5002755;28;20608;-69
2022/10/04 12:38:07;;;;;;;8.35;2.25;;;18.60;99.90;;;;;;5003025;28;20209;-69
2022/10/04 12:40:56;;;;;;;8.57;2.17;;;18.80;99.90;;;;;;4974208;28;20243;-69
2022/10/04 12:43:40;;;;;;;7.95;2.10;;;19.00;99.90;;;;;;5008036;28;20220;-70
2022/10/04 12:46:28;;;;;;;5.75;1.90;;;19.20;99.90;;;;;;4989010;28;20268;-69
2022/10/04 12:49:05;;;;;;;7.10;2.40;;;19.20;99.90;;;;;;5008640;28;20165;-69
2022/10/04 12:51:44;;;;;;;9.85;2.05;;;19.10;99.90;;;;;;4988550;28;20272;-69
2022/10/04 12:54:39;;;;;;;6.78;2.42;;;19.00;99.90;;;;;;5007603;28;20213;-69
2022/10/04 12:57:27;;;;;;;5.85;2.45;;;18.90;99.90;;;;;;5005516;28;20213;-69
2022/10/04 13:00:02;;;;;;;6.25;1.75;;;19.00;99.90;;;;;;4999643;28;20535;-69
2022/10/04 13:02:39;;;;;;;7.30;3.38;;;18.90;99.90;;;;;;4991170;28;20223;-69
2022/10/04 13:05:48;;;;;;;9.52;3.00;;;18.80;99.90;;;;;;5006183;28;20209;-69
2022/10/04 13:08:19;;;;;;;6.13;2.30;;;18.80;99.90;;;;;;5002715;28;20192;-69
2022/10/04 13:11:00;;;;;;;6.05;2.05;;;19.00;99.90;;;;;;5010371;28;20283;-70
2022/10/04 13:13:44;;;;;;;5.97;2.05;;;19.10;99.90;;;;;;5005102;28;20201;-68
2022/10/04 13:16:45;;;;;;;8.07;2.10;;;18.90;99.90;;;;;;5002604;28;20260;-69
2022/10/04 13:19:49;;;;;;;6.45;1.90;;;19.10;99.90;;;;;;5005956;28;20344;-69
2022/10/04 13:22:27;;;;;;;6.45;1.98;;;19.10;99.90;;;;;;4988384;28;20212;-69
2022/10/04 13:24:55;;;;;;;5.95;2.22;;;19.10;99.90;;;;;;5000927;28;20185;-69
2022/10/04 13:27:30;;;;;;;6.60;2.22;;;19.20;99.90;;;;;;5006080;28;20211;-68
2022/10/04 13:30:17;;;;;;;4.50;1.80;;;19.10;99.90;;;;;;5006740;28;20303;-72
2022/10/04 13:33:23;;;;;;;8.05;2.10;;;19.10;99.90;;;;;;5006104;28;20262;-67
2022/10/04 13:35:54;;;;;;;6.70;1.95;;;18.80;99.90;;;;;;5008339;28;20208;-67
2022/10/04 13:38:53;;;;;;;5.90;2.00;;;18.60;99.90;;;;;;5004563;28;20738;-67
2022/10/04 13:41:35;;;;;;;4.18;1.92;;;18.60;99.90;;;;;;5002581;28;20232;-67
2022/10/04 13:44:14;;;;;;;3.38;1.50;;;18.80;99.90;;;;;;4982184;28;20216;-68
2022/10/04 13:46:58;;;;;;;5.28;1.80;;;18.90;99.90;;;;;;5007610;28;20218;-72
2022/10/04 13:49:55;;;;;;;6.30;1.60;;;18.80;99.90;;;;;;5007538;28;20582;-67
2022/10/04 13:58:27;;;;;;;9.07;1.65;;;19.10;99.90;;;;;;5007160;28;20223;-69
2022/10/04 14:01:14;;;;;;;5.68;1.92;;;19.00;99.90;;;;;;5002443;28;20311;-69
2022/10/04 14:04:01;;;;;;;6.28;2.05;;;19.10;99.90;;;;;;5042139;23;20228;-69
2022/10/04 14:07:08;;;;;;;5.40;2.40;;;19.10;99.90;;;;;;5009285;28;20202;-69